createdAt,value
2019-05-26T00:00:00.984Z,99350.72
2019-05-26T00:01:35.273Z,99341.80
2019-05-26T00:03:10.133Z,99346.66
2019-05-26T00:04:44.468Z,99341.50
2019-05-26T00:06:19.278Z,99348.66
2019-05-26T00:07:53.488Z,99346.72
2019-05-26T00:09:28.336Z,99351.11
2019-05-26T00:11:02.957Z,99342.95
2019-05-26T00:12:37.744Z,99350.55
2019-05-26T00:14:11.952Z,99349.78
2019-05-26T00:15:46.783Z,99350.39
2019-05-26T00:17:21.231Z,99347.91
2019-05-26T00:18:56.033Z,99343.25
2019-05-26T00:20:30.432Z,99344.92
2019-05-26T00:22:05.340Z,99342.47
2019-05-26T00:23:39.908Z,99344.44
2019-05-26T00:25:14.872Z,99342.34
2019-05-26T00:26:49.121Z,99344.51
2019-05-26T00:28:23.896Z,99344.55
2019-05-26T00:29:58.690Z,99333.85
2019-05-26T00:31:33.562Z,99337.28
2019-05-26T00:33:07.821Z,99336.41
2019-05-26T00:34:42.636Z,99330.54
2019-05-26T00:36:17.047Z,99336.47
2019-05-26T00:37:51.823Z,99335.92
2019-05-26T00:39:26.072Z,99338.36
2019-05-26T00:41:00.944Z,99339.28
2019-05-26T00:42:35.730Z,99340.39
2019-05-26T00:44:10.564Z,99339.23
2019-05-26T00:45:44.872Z,99335.33
2019-05-26T00:47:19.669Z,99330.83
2019-05-26T00:48:54.103Z,99333.88
2019-05-26T00:50:28.989Z,99331.95
2019-05-26T00:52:03.208Z,99336.14
2019-05-26T00:53:37.996Z,99335.72
2019-05-26T00:55:12.729Z,99337.80
2019-05-26T00:56:47.565Z,99343.44
2019-05-26T00:58:21.778Z,99347.05
2019-05-26T00:59:56.574Z,99341.78
2019-05-26T01:01:31.157Z,99349.27
2019-05-26T01:03:05.997Z,99346.52
2019-05-26T01:04:40.195Z,99344.84
2019-05-26T01:06:15.044Z,99337.94
2019-05-26T01:08:05.123Z,99341.55
2019-05-26T01:09:25.963Z,99344.37
2019-05-26T01:11:01.440Z,99345.97
2019-05-26T01:12:36.680Z,99347.11
2019-05-26T01:14:11.200Z,99345.30
2019-05-26T01:15:46.045Z,99346.30
2019-05-26T01:17:20.253Z,99352.89
2019-05-26T01:18:55.049Z,99353.55
2019-05-26T01:20:29.644Z,99351.72
2019-05-26T01:22:04.476Z,99355.50
2019-05-26T01:23:38.721Z,99352.72
2019-05-26T01:25:13.520Z,99357.06
2019-05-26T01:26:48.213Z,99359.86
2019-05-26T01:28:23.003Z,99359.13
2019-05-26T01:29:57.264Z,99358.75
2019-05-26T01:31:32.038Z,99365.16
2019-05-26T01:33:06.921Z,99375.69
2019-05-26T01:34:41.720Z,99368.13
2019-05-26T01:36:16.469Z,99374.63
2019-05-26T01:37:51.403Z,99370.53
2019-05-26T01:39:25.977Z,99371.77
2019-05-26T01:41:00.777Z,99370.72
2019-05-26T01:42:35.020Z,99374.98
2019-05-26T01:44:09.816Z,99376.95
2019-05-26T01:45:44.567Z,99379.93
2019-05-26T01:47:19.348Z,99374.63
2019-05-26T01:48:53.602Z,99374.47
2019-05-26T01:50:28.388Z,99371.21
2019-05-26T01:52:02.822Z,99367.50
2019-05-26T01:53:37.849Z,99369.33
2019-05-26T01:55:12.076Z,99372.98
2019-05-26T01:56:46.868Z,99370.80
2019-05-26T01:58:21.597Z,99366.54
2019-05-26T01:59:56.433Z,99366.22
2019-05-26T02:01:34.159Z,99365.56
2019-05-26T02:03:09.597Z,99363.34
2019-05-26T02:04:44.174Z,99368.99
2019-05-26T02:06:18.953Z,99373.57
2019-05-26T02:07:53.160Z,99367.28
2019-05-26T02:09:28.357Z,99368.02
2019-05-26T02:11:03.054Z,99376.11
2019-05-26T02:12:37.848Z,99378.80
2019-05-26T02:14:14.477Z,99371.56
2019-05-26T02:15:48.557Z,99368.68
2019-05-26T02:17:23.056Z,99373.28
2019-05-26T02:18:57.844Z,99373.33
2019-05-26T02:20:32.184Z,99366.22
2019-05-26T02:22:07.416Z,99367.94
2019-05-26T02:23:41.746Z,99369.16
2019-05-26T02:25:18.245Z,99368.46
2019-05-26T02:26:52.515Z,99371.80
2019-05-26T02:28:27.298Z,99370.75
2019-05-26T02:30:01.968Z,99374.21
2019-05-26T02:31:38.052Z,99368.05
2019-05-26T02:33:12.283Z,99378.95
2019-05-26T02:34:47.077Z,99373.59
2019-05-26T02:36:21.558Z,99374.35
2019-05-26T02:37:56.358Z,99381.05
2019-05-26T02:39:30.614Z,99375.11
2019-05-26T02:41:05.614Z,99383.33
2019-05-26T02:42:40.230Z,99384.30
2019-05-26T02:44:15.074Z,99385.23
2019-05-26T02:45:49.296Z,99386.72
2019-05-26T02:47:24.083Z,99386.29
2019-05-26T02:48:58.496Z,99387.14
2019-05-26T02:50:33.399Z,99386.92
2019-05-26T02:52:07.700Z,99389.94
2019-05-26T02:53:42.532Z,99382.02
2019-05-26T02:55:18.339Z,99388.75
2019-05-26T02:56:53.226Z,99395.23
2019-05-26T02:58:27.618Z,99390.81
2019-05-26T03:00:02.471Z,99395.31
2019-05-26T03:01:37.403Z,99393.61
2019-05-26T03:03:16.162Z,99393.60
2019-05-26T03:04:50.372Z,99400.84
2019-05-26T03:06:26.806Z,99406.16
2019-05-26T03:08:03.452Z,99403.12
2019-05-26T03:09:40.258Z,99406.75
2019-05-26T03:11:15.438Z,99403.88
2019-05-26T03:12:51.542Z,99411.79
2019-05-26T03:14:28.062Z,99402.06
2019-05-26T03:16:05.764Z,99400.78
2019-05-26T03:17:42.161Z,99403.62
2019-05-26T03:19:19.629Z,99402.65
2019-05-26T03:20:57.183Z,99404.36
2019-05-26T03:22:34.792Z,99411.50
2019-05-26T03:24:09.002Z,99408.64
2019-05-26T03:25:43.793Z,99413.36
2019-05-26T03:27:18.213Z,99410.33
2019-05-26T03:28:53.036Z,99407.86
2019-05-26T03:30:27.362Z,99411.10
2019-05-26T03:32:04.609Z,99409.81
2019-05-26T03:33:39.057Z,99405.27
2019-05-26T03:35:14.645Z,99411.97
2019-05-26T03:36:48.894Z,99415.79
2019-05-26T03:38:23.693Z,99423.47
2019-05-26T03:39:58.225Z,99425.11
2019-05-26T03:41:33.017Z,99423.33
2019-05-26T03:43:07.241Z,99416.64
2019-05-26T03:44:42.016Z,99413.72
2019-05-26T03:46:18.548Z,99415.94
2019-05-26T03:47:53.436Z,99420.09
2019-05-26T03:49:27.677Z,99427.63
2019-05-26T03:51:02.472Z,99421.52
2019-05-26T03:52:37.118Z,99426.02
2019-05-26T03:54:11.909Z,99417.19
2019-05-26T03:55:46.167Z,99415.95
2019-05-26T03:57:20.971Z,99418.39
2019-05-26T03:58:55.485Z,99418.19
2019-05-26T04:00:30.288Z,99422.59
2019-05-26T04:02:04.637Z,99420.40
2019-05-26T04:03:39.416Z,99418.20
2019-05-26T04:05:14.784Z,99415.70
2019-05-26T04:06:49.635Z,99418.03
2019-05-26T04:08:23.850Z,99422.48
2019-05-26T04:10:05.509Z,99414.97
2019-05-26T04:11:35.101Z,99422.61
2019-05-26T04:13:10.293Z,99426.37
2019-05-26T04:14:44.502Z,99431.16
2019-05-26T04:16:19.370Z,99430.94
2019-05-26T04:17:53.978Z,99428.11
2019-05-26T04:19:28.768Z,99427.52
2019-05-26T04:21:02.994Z,99434.59
2019-05-26T04:22:37.778Z,99436.95
2019-05-26T04:24:12.139Z,99437.58
2019-05-26T04:25:46.929Z,99435.09
2019-05-26T04:27:21.153Z,99443.39
2019-05-26T04:28:56.151Z,99440.16
2019-05-26T04:30:30.769Z,99435.80
2019-05-26T04:32:05.514Z,99430.59
2019-05-26T04:33:39.754Z,99426.97
2019-05-26T04:35:14.551Z,99431.14
2019-05-26T04:36:48.991Z,99429.70
2019-05-26T04:38:23.832Z,99428.09
2019-05-26T04:39:58.048Z,99429.85
2019-05-26T04:41:32.845Z,99423.31
2019-05-26T04:43:07.569Z,99430.22
2019-05-26T04:44:42.433Z,99431.92
2019-05-26T04:46:16.635Z,99428.16
2019-05-26T04:47:51.424Z,99431.74
2019-05-26T04:49:26.258Z,99433.77
2019-05-26T04:51:01.074Z,99436.42
2019-05-26T04:52:35.302Z,99436.08
2019-05-26T04:54:10.093Z,99438.09
2019-05-26T04:55:44.610Z,99431.75
2019-05-26T04:57:19.400Z,99430.58
2019-05-26T04:58:53.646Z,99432.89
2019-05-26T05:00:28.506Z,99431.77
2019-05-26T05:02:02.977Z,99433.20
2019-05-26T05:03:37.773Z,99432.65
2019-05-26T05:05:12.175Z,99430.04
2019-05-26T05:06:46.981Z,99433.94
2019-05-26T05:08:21.555Z,99438.02
2019-05-26T05:09:56.348Z,99437.31
2019-05-26T05:11:30.598Z,99435.25
2019-05-26T05:13:05.398Z,99430.64
2019-05-26T05:14:39.827Z,99431.97
2019-05-26T05:16:14.613Z,99426.44
2019-05-26T05:17:50.324Z,99424.14
2019-05-26T05:19:25.120Z,99425.59
2019-05-26T05:20:59.527Z,99433.43
2019-05-26T05:22:34.313Z,99436.87
2019-05-26T05:24:08.678Z,99436.28
2019-05-26T05:25:43.471Z,99436.84
2019-05-26T05:27:18.096Z,99435.30
2019-05-26T05:28:52.965Z,99438.11
2019-05-26T05:30:27.218Z,99434.25
2019-05-26T05:32:02.009Z,99436.41
2019-05-26T05:33:36.476Z,99432.48
2019-05-26T05:35:12.065Z,99437.23
2019-05-26T05:36:46.314Z,99437.24
2019-05-26T05:38:21.106Z,99435.03
2019-05-26T05:39:55.568Z,99439.12
2019-05-26T05:41:30.355Z,99437.52
2019-05-26T05:43:04.621Z,99439.02
2019-05-26T05:44:39.421Z,99434.72
2019-05-26T05:46:14.443Z,99432.62
2019-05-26T05:47:49.281Z,99436.16
2019-05-26T05:49:25.080Z,99439.36
2019-05-26T05:50:59.940Z,99436.77
2019-05-26T05:52:34.241Z,99439.09
2019-05-26T05:54:09.033Z,99438.03
2019-05-26T05:55:43.237Z,99438.58
2019-05-26T05:57:18.029Z,99439.06
2019-05-26T05:58:52.509Z,99442.34
2019-05-26T06:00:27.296Z,99440.54
2019-05-26T06:02:01.607Z,99442.81
2019-05-26T06:03:36.432Z,99439.10
2019-05-26T06:05:12.329Z,99444.98
2019-05-26T06:06:47.530Z,99446.45
2019-05-26T06:08:22.741Z,99443.84
2019-05-26T06:09:57.548Z,99444.70
2019-05-26T06:11:31.913Z,99448.12
2019-05-26T06:13:06.750Z,99446.38
2019-05-26T06:14:40.972Z,99447.72
2019-05-26T06:16:15.756Z,99445.99
2019-05-26T06:17:50.608Z,99443.03
2019-05-26T06:19:25.404Z,99445.27
2019-05-26T06:20:59.616Z,99439.20
2019-05-26T06:22:34.447Z,99442.55
2019-05-26T06:24:08.893Z,99439.12
2019-05-26T06:25:43.753Z,99439.97
2019-05-26T06:27:17.966Z,99443.01
2019-05-26T06:28:52.874Z,99441.16
2019-05-26T06:30:28.971Z,99438.13
2019-05-26T06:32:04.052Z,99441.61
2019-05-26T06:33:38.466Z,99434.63
2019-05-26T06:35:13.392Z,99433.82
2019-05-26T06:36:47.730Z,99435.33
2019-05-26T06:38:22.592Z,99438.88
2019-05-26T06:39:56.852Z,99438.81
2019-05-26T06:41:33.751Z,99440.34
2019-05-26T06:43:07.761Z,99439.36
2019-05-26T06:44:52.973Z,99436.96
2019-05-26T06:46:18.412Z,99436.03
2019-05-26T06:47:53.204Z,99434.59
2019-05-26T06:49:27.872Z,99433.76
2019-05-26T06:51:02.661Z,99441.39
2019-05-26T06:52:36.875Z,99441.06
2019-05-26T06:54:11.681Z,99435.20
2019-05-26T06:55:46.243Z,99435.99
2019-05-26T06:57:21.034Z,99430.35
2019-05-26T06:58:55.285Z,99428.23
2019-05-26T07:00:31.316Z,99424.13
2019-05-26T07:02:06.967Z,99425.42
2019-05-26T07:03:41.781Z,99432.08
2019-05-26T07:05:18.442Z,99434.10
2019-05-26T07:06:52.452Z,99429.01
2019-05-26T07:08:26.975Z,99429.73
2019-05-26T07:10:01.879Z,99428.02
2019-05-26T07:11:53.917Z,99428.63
2019-05-26T07:13:12.947Z,99426.66
2019-05-26T07:14:49.340Z,99425.20
2019-05-26T07:16:37.679Z,99420.91
2019-05-26T07:18:01.486Z,99417.47
2019-05-26T07:19:36.280Z,99419.58
2019-05-26T07:21:10.605Z,99418.16
2019-05-26T07:22:45.404Z,99415.55
2019-05-26T07:24:19.662Z,99417.34
2019-05-26T07:25:54.456Z,99411.20
2019-05-26T07:27:28.963Z,99414.87
2019-05-26T07:29:03.764Z,99415.21
2019-05-26T07:30:38.008Z,99418.42
2019-05-26T07:32:12.804Z,99418.21
2019-05-26T07:33:47.313Z,99418.00
2019-05-26T07:35:22.118Z,99413.98
2019-05-26T07:36:56.360Z,99422.55
2019-05-26T07:38:31.170Z,99425.80
2019-05-26T07:40:06.817Z,99422.45
2019-05-26T07:41:41.609Z,99422.95
2019-05-26T07:43:15.853Z,99419.70
2019-05-26T07:44:50.644Z,99425.38
2019-05-26T07:46:25.193Z,99422.09
2019-05-26T07:47:59.983Z,99415.79
2019-05-26T07:49:34.229Z,99416.75
2019-05-26T07:51:10.096Z,99417.92
2019-05-26T07:52:44.684Z,99418.93
2019-05-26T07:54:25.418Z,99419.92
2019-05-26T07:55:55.330Z,99416.34
2019-05-26T07:57:30.122Z,99419.41
2019-05-26T07:59:04.685Z,99412.40
2019-05-26T08:00:39.478Z,99421.26
2019-05-26T08:02:13.706Z,99422.80
2019-05-26T08:03:48.500Z,99422.59
2019-05-26T08:05:22.960Z,99427.03
2019-05-26T08:06:57.793Z,99425.70
2019-05-26T08:08:32.396Z,99430.59
2019-05-26T08:10:10.716Z,99432.73
2019-05-26T08:11:45.120Z,99429.23
2019-05-26T08:13:19.952Z,99429.82
2019-05-26T08:14:54.161Z,99424.30
2019-05-26T08:16:28.958Z,99420.58
2019-05-26T08:18:03.264Z,99421.89
2019-05-26T08:19:39.400Z,99418.41
2019-05-26T08:21:13.612Z,99418.48
2019-05-26T08:22:48.409Z,99424.81
2019-05-26T08:24:23.191Z,99428.36
2019-05-26T08:25:58.095Z,99422.57
2019-05-26T08:27:32.506Z,99426.55
2019-05-26T08:29:08.765Z,99423.56
2019-05-26T08:30:43.608Z,99426.66
2019-05-26T08:32:18.403Z,99434.91
2019-05-26T08:33:52.613Z,99431.68
2019-05-26T08:35:27.157Z,99431.27
2019-05-26T08:37:01.449Z,99434.33
2019-05-26T08:38:36.605Z,99440.33
2019-05-26T08:40:21.049Z,99434.25
2019-05-26T08:41:55.581Z,99431.44
2019-05-26T08:43:29.788Z,99427.69
2019-05-26T08:45:06.238Z,99424.89
2019-05-26T08:46:40.477Z,99423.99
2019-05-26T08:48:15.881Z,99423.47
2019-05-26T08:49:50.202Z,99426.94
2019-05-26T08:51:25.246Z,99423.58
2019-05-26T08:52:59.460Z,99429.42
2019-05-26T08:54:34.260Z,99425.30
2019-05-26T08:56:08.520Z,99423.50
2019-05-26T08:57:44.939Z,99421.48
2019-05-26T08:59:19.200Z,99425.06
2019-05-26T09:00:54.064Z,99423.30
2019-05-26T09:02:28.294Z,99424.83
2019-05-26T09:04:03.394Z,99421.27
2019-05-26T09:05:37.600Z,99430.50
2019-05-26T09:07:12.405Z,99426.28
2019-05-26T09:08:46.614Z,99422.75
2019-05-26T09:10:22.796Z,99426.94
2019-05-26T09:11:57.033Z,99425.47
2019-05-26T09:13:31.961Z,99423.95
2019-05-26T09:15:08.565Z,99426.55
2019-05-26T09:16:43.718Z,99427.55
2019-05-26T09:18:19.501Z,99369.80
2019-05-26T09:19:55.010Z,99426.42
2019-05-26T09:21:29.222Z,99427.88
2019-05-26T09:23:04.143Z,99428.91
2019-05-26T09:24:38.380Z,99426.34
2019-05-26T09:26:12.916Z,99430.94
2019-05-26T09:27:47.203Z,99426.21
2019-05-26T09:29:21.993Z,99431.20
2019-05-26T09:30:56.240Z,99426.20
2019-05-26T09:32:31.101Z,99425.35
2019-05-26T09:34:05.316Z,99420.19
2019-05-26T09:35:40.357Z,99419.85
2019-05-26T09:37:14.657Z,99414.41
2019-05-26T09:38:49.524Z,99414.27
2019-05-26T09:40:23.734Z,99417.83
2019-05-26T09:41:58.733Z,99424.10
2019-05-26T09:43:32.935Z,99420.76
2019-05-26T09:45:09.368Z,99424.64
2019-05-26T09:46:43.602Z,99418.48
2019-05-26T09:48:18.640Z,99411.28
2019-05-26T09:49:52.847Z,99410.17
2019-05-26T09:51:27.389Z,99411.03
2019-05-26T09:53:01.602Z,99414.52
2019-05-26T09:54:36.912Z,99411.13
2019-05-26T09:56:11.118Z,99415.19
2019-05-26T09:57:45.940Z,99419.44
2019-05-26T09:59:20.148Z,99417.72
2019-05-26T10:00:55.181Z,99416.34
2019-05-26T10:02:30.180Z,99411.59
2019-05-26T10:04:05.021Z,99414.03
2019-05-26T10:05:39.489Z,99413.84
2019-05-26T10:07:15.991Z,99411.45
2019-05-26T10:08:50.480Z,99413.48
2019-05-26T10:10:25.052Z,99412.66
2019-05-26T10:11:59.325Z,99413.72
2019-05-26T10:13:35.237Z,99412.20
2019-05-26T10:15:10.558Z,99408.72
2019-05-26T10:16:45.350Z,99412.09
2019-05-26T10:18:19.561Z,99410.34
2019-05-26T10:19:54.786Z,99407.86
2019-05-26T10:21:29.068Z,99404.67
2019-05-26T10:23:03.867Z,99405.27
2019-05-26T10:24:38.077Z,99399.66
2019-05-26T10:26:13.372Z,99400.91
2019-05-26T10:27:47.580Z,99401.22
2019-05-26T10:29:22.477Z,99400.34
2019-05-26T10:30:56.674Z,99401.41
2019-05-26T10:32:31.942Z,99393.72
2019-05-26T10:34:06.196Z,99399.17
2019-05-26T10:35:40.993Z,99393.81
2019-05-26T10:37:15.203Z,99392.72
2019-05-26T10:38:50.622Z,99395.27
2019-05-26T10:40:26.380Z,99393.76
2019-05-26T10:42:01.207Z,99395.23
2019-05-26T10:43:46.911Z,99390.78
2019-05-26T10:45:13.905Z,99385.69
2019-05-26T10:46:48.108Z,99388.11
2019-05-26T10:48:22.901Z,99384.41
2019-05-26T10:49:57.148Z,99381.45
2019-05-26T10:51:32.833Z,99384.43
2019-05-26T10:53:07.120Z,99386.13
2019-05-26T10:54:41.896Z,99388.92
2019-05-26T10:56:16.130Z,99382.84
2019-05-26T10:57:51.465Z,99384.09
2019-05-26T10:59:25.692Z,99385.96
2019-05-26T11:01:00.490Z,99385.90
2019-05-26T11:02:34.706Z,99381.23
2019-05-26T11:04:10.803Z,99379.16
2019-05-26T11:05:45.034Z,99377.38
2019-05-26T11:07:19.924Z,99370.11
2019-05-26T11:08:56.945Z,99375.04
2019-05-26T11:10:32.060Z,99374.04
2019-05-26T11:12:06.304Z,99371.48
2019-05-26T11:13:41.092Z,99364.77
2019-05-26T11:15:15.704Z,99366.55
2019-05-26T11:16:50.973Z,99364.03
2019-05-26T11:18:25.452Z,99358.94
2019-05-26T11:20:00.237Z,99361.51
2019-05-26T11:21:34.516Z,99360.66
2019-05-26T11:23:09.649Z,99362.94
2019-05-26T11:24:43.872Z,99361.28
2019-05-26T11:26:19.041Z,99364.53
2019-05-26T11:27:53.358Z,99357.65
2019-05-26T11:29:28.610Z,99347.38
2019-05-26T11:31:02.893Z,99358.33
2019-05-26T11:32:37.685Z,99353.36
2019-05-26T11:34:11.880Z,99355.97
2019-05-26T11:35:47.210Z,99353.39
2019-05-26T11:37:21.484Z,99353.72
2019-05-26T11:38:56.272Z,99348.70
2019-05-26T11:40:30.489Z,99353.70
2019-05-26T11:42:13.351Z,99350.18
2019-05-26T11:43:43.110Z,99354.00
2019-05-26T11:45:18.804Z,99351.77
2019-05-26T11:46:53.130Z,99354.30
2019-05-26T11:48:28.312Z,99346.75
2019-05-26T11:50:02.517Z,99350.69
2019-05-26T11:51:37.309Z,99350.66
2019-05-26T11:53:11.550Z,99346.11
2019-05-26T11:54:46.725Z,99349.68
2019-05-26T11:56:22.929Z,99340.58
2019-05-26T11:57:57.757Z,99349.03
2019-05-26T11:59:31.965Z,99338.72
2019-05-26T12:01:06.942Z,99339.45
2019-05-26T12:02:41.205Z,99338.78
2019-05-26T12:04:16.010Z,99336.52
2019-05-26T12:05:50.287Z,99330.58
2019-05-26T12:07:25.315Z,99337.50
2019-05-26T12:08:59.585Z,99337.53
2019-05-26T12:10:34.992Z,99337.75
2019-05-26T12:12:10.324Z,99342.88
2019-05-26T12:13:46.805Z,99336.30
2019-05-26T12:15:21.192Z,99336.36
2019-05-26T12:16:57.457Z,99337.31
2019-05-26T12:18:31.736Z,99341.17
2019-05-26T12:20:08.512Z,99339.22
2019-05-26T12:21:42.724Z,99334.66
2019-05-26T12:23:17.518Z,99337.04
2019-05-26T12:24:51.760Z,99333.66
2019-05-26T12:26:27.797Z,99328.66
2019-05-26T12:28:02.084Z,99335.44
2019-05-26T12:29:36.904Z,99330.55
2019-05-26T12:31:11.148Z,99329.94
2019-05-26T12:32:46.090Z,99328.90
2019-05-26T12:34:20.294Z,99329.59
2019-05-26T12:35:55.367Z,99334.89
2019-05-26T12:37:29.632Z,99331.92
2019-05-26T12:39:06.490Z,99331.00
2019-05-26T12:40:40.889Z,99328.95
2019-05-26T12:42:17.118Z,99328.88
2019-05-26T12:43:51.633Z,99326.38
2019-05-26T12:45:26.593Z,99323.72
2019-05-26T12:47:00.805Z,99327.38
2019-05-26T12:48:35.739Z,99323.59
2019-05-26T12:50:11.135Z,99321.80
2019-05-26T12:51:46.499Z,99318.11
2019-05-26T12:53:20.772Z,99320.93
2019-05-26T12:54:55.572Z,99314.94
2019-05-26T12:56:31.461Z,99310.65
2019-05-26T12:58:06.652Z,99317.80
2019-05-26T12:59:42.518Z,99314.27
2019-05-26T13:01:17.309Z,99312.80
2019-05-26T13:02:51.591Z,99311.47
2019-05-26T13:04:26.567Z,99311.28
2019-05-26T13:06:02.266Z,99317.14
2019-05-26T13:07:37.508Z,99315.84
2019-05-26T13:09:12.721Z,99312.20
2019-05-26T13:10:47.758Z,99316.84
2019-05-26T13:12:22.131Z,99314.69
2019-05-26T13:13:56.985Z,99313.84
2019-05-26T13:15:31.200Z,99304.73
2019-05-26T13:17:06.101Z,99309.38
2019-05-26T13:18:40.344Z,99310.72
2019-05-26T13:20:16.508Z,99304.67
2019-05-26T13:21:50.757Z,99305.95
2019-05-26T13:23:25.645Z,99300.22
2019-05-26T13:24:59.840Z,99295.95
2019-05-26T13:26:34.636Z,99299.92
2019-05-26T13:28:10.065Z,99301.27
2019-05-26T13:29:45.133Z,99297.41
2019-05-26T13:31:19.428Z,99296.43
2019-05-26T13:32:54.214Z,99290.68
2019-05-26T13:34:28.511Z,99291.15
2019-05-26T13:36:03.497Z,99297.73
2019-05-26T13:37:37.716Z,99294.84
2019-05-26T13:39:12.500Z,99293.52
2019-05-26T13:40:46.717Z,99286.69
2019-05-26T13:42:21.965Z,99286.96
2019-05-26T13:43:56.575Z,99291.00
2019-05-26T13:45:33.842Z,99292.25
2019-05-26T13:47:07.225Z,99291.13
2019-05-26T13:48:41.912Z,99290.09
2019-05-26T13:50:16.925Z,99292.52
2019-05-26T13:51:51.726Z,99286.09
2019-05-26T13:53:30.147Z,99290.27
2019-05-26T13:55:02.797Z,99288.06
2019-05-26T13:56:37.064Z,99287.66
2019-05-26T13:58:11.890Z,99291.02
2019-05-26T13:59:46.383Z,99289.55
2019-05-26T14:01:21.373Z,99286.00
2019-05-26T14:02:57.092Z,99289.26
2019-05-26T14:04:32.026Z,99280.31
2019-05-26T14:06:06.271Z,99283.95
2019-05-26T14:07:41.388Z,99281.92
2019-05-26T14:09:15.589Z,99283.87
2019-05-26T14:10:50.437Z,99286.09
2019-05-26T14:12:24.632Z,99285.05
2019-05-26T14:13:59.854Z,99286.51
2019-05-26T14:15:38.737Z,99280.30
2019-05-26T14:17:11.026Z,99284.87
2019-05-26T14:18:45.652Z,99290.55
2019-05-26T14:20:23.764Z,99293.13
2019-05-26T14:21:57.964Z,99286.64
2019-05-26T14:23:32.834Z,99287.92
2019-05-26T14:25:08.136Z,99282.37
2019-05-26T14:26:43.250Z,99281.88
2019-05-26T14:28:17.809Z,99282.63
2019-05-26T14:29:52.641Z,99279.06
2019-05-26T14:31:27.356Z,99278.89
2019-05-26T14:33:02.373Z,99280.44
2019-05-26T14:34:36.650Z,99281.98
2019-05-26T14:36:11.483Z,99286.05
2019-05-26T14:37:45.684Z,99276.73
2019-05-26T14:39:21.645Z,99281.17
2019-05-26T14:40:55.892Z,99275.26
2019-05-26T14:42:30.733Z,99276.17
2019-05-26T14:44:05.041Z,99277.67
2019-05-26T14:45:52.829Z,99272.22
2019-05-26T14:47:16.672Z,99278.80
2019-05-26T14:48:51.517Z,99272.43
2019-05-26T14:50:25.755Z,99268.91
2019-05-26T14:52:00.872Z,99272.16
2019-05-26T14:53:35.060Z,99270.93
2019-05-26T14:55:11.790Z,99271.05
2019-05-26T14:56:46.008Z,99276.92
2019-05-26T14:58:21.143Z,99271.27
2019-05-26T14:59:56.990Z,99264.59
2019-05-26T15:01:31.787Z,99270.23
2019-05-26T15:03:05.998Z,99269.03
2019-05-26T15:04:41.257Z,99263.88
2019-05-26T15:06:16.491Z,99266.89
2019-05-26T15:07:51.284Z,99264.52
2019-05-26T15:09:25.661Z,99266.14
2019-05-26T15:11:00.930Z,99270.41
2019-05-26T15:12:35.137Z,99269.30
2019-05-26T15:14:09.925Z,99262.67
2019-05-26T15:15:44.265Z,99266.36
2019-05-26T15:17:20.774Z,99268.48
2019-05-26T15:18:55.021Z,99269.44
2019-05-26T15:20:29.891Z,99267.70
2019-05-26T15:22:04.108Z,99266.75
2019-05-26T15:23:39.236Z,99268.20
2019-05-26T15:25:15.762Z,99268.38
2019-05-26T15:26:50.623Z,99268.11
2019-05-26T15:28:24.829Z,99261.73
2019-05-26T15:29:59.961Z,99264.73
2019-05-26T15:31:34.169Z,99268.35
2019-05-26T15:33:09.573Z,99268.11
2019-05-26T15:34:44.548Z,99263.99
2019-05-26T15:36:19.662Z,99262.19
2019-05-26T15:37:53.873Z,99266.66
2019-05-26T15:39:28.706Z,99265.44
2019-05-26T15:41:03.654Z,99267.97
2019-05-26T15:42:38.955Z,99263.53
2019-05-26T15:44:13.149Z,99262.89
2019-05-26T15:45:49.674Z,99259.88
2019-05-26T15:47:24.116Z,99263.25
2019-05-26T15:48:59.272Z,99265.80
2019-05-26T15:50:33.641Z,99261.70
2019-05-26T15:52:08.429Z,99257.38
2019-05-26T15:53:42.720Z,99259.21
2019-05-26T15:55:18.163Z,99260.91
2019-05-26T15:56:52.401Z,99264.05
2019-05-26T15:58:27.273Z,99262.75
2019-05-26T16:00:01.481Z,99264.34
2019-05-26T16:01:36.394Z,99258.39
2019-05-26T16:03:10.653Z,99265.02
2019-05-26T16:04:45.730Z,99267.95
2019-05-26T16:06:20.184Z,99267.59
2019-05-26T16:07:55.396Z,99268.19
2019-05-26T16:09:29.644Z,99263.45
2019-05-26T16:11:04.440Z,99271.81
2019-05-26T16:12:38.854Z,99271.49
2019-05-26T16:14:13.980Z,99272.88
2019-05-26T16:15:48.189Z,99269.42
2019-05-26T16:17:23.025Z,99274.48
2019-05-26T16:18:57.245Z,99267.98
2019-05-26T16:20:32.551Z,99272.86
2019-05-26T16:22:06.762Z,99275.29
2019-05-26T16:23:41.631Z,99277.20
2019-05-26T16:25:15.945Z,99280.18
2019-05-26T16:26:51.026Z,99276.16
2019-05-26T16:28:25.279Z,99274.60
2019-05-26T16:30:00.049Z,99277.95
2019-05-26T16:31:34.281Z,99279.81
2019-05-26T16:33:10.009Z,99278.08
2019-05-26T16:34:44.216Z,99276.65
2019-05-26T16:36:21.270Z,99274.92
2019-05-26T16:37:54.872Z,99281.11
2019-05-26T16:39:36.880Z,99283.70
2019-05-26T16:41:06.819Z,99278.80
2019-05-26T16:42:41.944Z,99279.06
2019-05-26T16:44:16.172Z,99282.99
2019-05-26T16:45:56.070Z,99279.90
2019-05-26T16:47:27.376Z,99280.99
2019-05-26T16:49:02.369Z,99285.55
2019-05-26T16:50:36.580Z,99287.67
2019-05-26T16:52:11.769Z,99288.98
2019-05-26T16:53:46.041Z,99292.14
2019-05-26T16:55:20.928Z,99287.66
2019-05-26T16:56:55.161Z,99291.28
2019-05-26T16:58:30.254Z,99290.94
2019-05-26T17:00:06.712Z,99288.25
2019-05-26T17:01:42.578Z,99287.16
2019-05-26T17:03:16.786Z,99288.30
2019-05-26T17:04:52.136Z,99287.52
2019-05-26T17:06:26.440Z,99289.30
2019-05-26T17:08:01.329Z,99289.55
2019-05-26T17:09:35.516Z,99290.88
2019-05-26T17:11:10.590Z,99285.88
2019-05-26T17:12:44.861Z,99287.08
2019-05-26T17:14:19.694Z,99287.96
2019-05-26T17:15:53.899Z,99290.27
2019-05-26T17:17:28.880Z,99289.12
2019-05-26T17:19:03.109Z,99290.81
2019-05-26T17:20:38.116Z,99295.29
2019-05-26T17:22:12.325Z,99297.98
2019-05-26T17:23:47.417Z,99298.27
2019-05-26T17:25:21.708Z,99295.62
2019-05-26T17:26:56.575Z,99298.58
2019-05-26T17:28:30.836Z,99296.58
2019-05-26T17:30:07.893Z,99302.55
2019-05-26T17:31:42.112Z,99300.49
2019-05-26T17:33:16.909Z,99304.11
2019-05-26T17:34:51.152Z,99302.47
2019-05-26T17:36:26.326Z,99300.41
2019-05-26T17:38:00.613Z,99298.63
2019-05-26T17:39:35.501Z,99301.25
2019-05-26T17:41:11.207Z,99297.28
2019-05-26T17:42:46.417Z,99299.77
2019-05-26T17:44:20.629Z,99300.69
2019-05-26T17:45:55.429Z,99302.94
2019-05-26T17:47:30.907Z,99300.42
2019-05-26T17:49:06.345Z,99301.48
2019-05-26T17:50:41.149Z,99304.12
2019-05-26T17:52:15.724Z,99307.08
2019-05-26T17:53:49.959Z,99304.66
2019-05-26T17:55:24.999Z,99306.44
2019-05-26T17:56:59.223Z,99312.92
2019-05-26T17:58:34.052Z,99318.06
2019-05-26T18:00:12.168Z,99312.97
2019-05-26T18:01:47.148Z,99315.92
2019-05-26T18:03:22.348Z,99312.78
2019-05-26T18:04:57.165Z,99311.07
2019-05-26T18:06:31.399Z,99254.52
2019-05-26T18:08:06.347Z,99311.27
2019-05-26T18:09:44.660Z,99313.37
2019-05-26T18:11:17.141Z,99315.19
2019-05-26T18:12:51.465Z,99314.61
2019-05-26T18:14:27.278Z,99313.29
2019-05-26T18:16:01.561Z,99317.78
2019-05-26T18:17:46.424Z,99328.23
2019-05-26T18:19:12.285Z,99332.86
2019-05-26T18:20:47.297Z,99332.59
2019-05-26T18:22:21.765Z,99340.73
2019-05-26T18:23:56.700Z,99344.25
2019-05-26T18:25:30.950Z,99346.59
2019-05-26T18:27:12.591Z,99348.39
2019-05-26T18:28:46.813Z,99348.02
2019-05-26T18:30:22.130Z,99344.38
2019-05-26T18:31:56.537Z,99347.21
2019-05-26T18:33:31.357Z,99347.73